createdAt,value
2019-05-21T00:01:23.478Z,72.40
2019-05-21T00:03:53.105Z,72.40
2019-05-21T00:06:22.707Z,72.50
2019-05-21T00:08:52.782Z,72.40
2019-05-21T00:11:23.470Z,72.40
2019-05-21T00:13:53.109Z,72.50
2019-05-21T00:16:23.174Z,72.60
2019-05-21T00:18:52.820Z,72.50
2019-05-21T00:21:22.417Z,72.60
2019-05-21T00:23:52.755Z,72.60
2019-05-21T00:26:22.349Z,72.60
2019-05-21T00:29:28.012Z,72.60
2019-05-21T00:32:34.123Z,72.80
2019-05-21T00:35:46.400Z,72.60
2019-05-21T00:38:52.213Z,72.60
2019-05-21T00:41:57.708Z,72.90
2019-05-21T00:44:27.327Z,73.00
2019-05-21T00:46:56.962Z,73.10
2019-05-21T00:49:26.556Z,73.40
2019-05-21T00:52:07.051Z,73.40
2019-05-21T00:54:27.635Z,73.50
2019-05-21T00:56:57.257Z,73.40
2019-05-21T00:59:26.836Z,73.30
2019-05-21T01:01:56.880Z,73.20
2019-05-21T01:04:26.969Z,73.40
2019-05-21T01:06:56.595Z,73.30
2019-05-21T01:09:26.165Z,73.20
2019-05-21T01:11:55.798Z,73.20
2019-05-21T01:14:25.729Z,73.20
2019-05-21T01:16:55.333Z,73.30
2019-05-21T01:19:25.440Z,73.40
2019-05-21T01:21:56.104Z,73.30
2019-05-21T01:24:25.730Z,73.30
2019-05-21T01:26:56.007Z,73.20
2019-05-21T01:29:25.608Z,73.20
2019-05-21T01:31:55.656Z,73.30
2019-05-21T01:34:25.252Z,73.20
2019-05-21T01:36:54.878Z,73.20
2019-05-21T01:39:24.811Z,73.20
2019-05-21T01:41:55.312Z,73.30
2019-05-21T01:44:24.901Z,73.30
2019-05-21T01:46:54.919Z,73.20
2019-05-21T01:49:24.490Z,73.30
2019-05-21T01:51:54.989Z,73.20
2019-05-21T01:54:24.579Z,73.30
2019-05-21T01:56:54.197Z,73.40
2019-05-21T01:59:23.793Z,73.30
2019-05-21T02:01:53.410Z,73.40
2019-05-21T02:04:23.465Z,73.40
2019-05-21T02:06:53.545Z,73.40
2019-05-21T02:09:23.142Z,74.50
2019-05-21T02:11:53.210Z,73.50
2019-05-21T02:14:22.797Z,73.60
2019-05-21T02:16:52.937Z,74.10
2019-05-21T02:19:23.041Z,73.60
2019-05-21T02:21:53.435Z,73.50
2019-05-21T02:24:23.057Z,73.60
2019-05-21T02:26:53.063Z,73.60
2019-05-21T02:29:23.161Z,73.60
2019-05-21T02:31:53.750Z,73.60
2019-05-21T02:34:23.374Z,73.60
2019-05-21T02:36:52.997Z,73.60
2019-05-21T02:39:22.729Z,73.70
2019-05-21T02:41:52.726Z,73.80
2019-05-21T02:44:22.358Z,73.60
2019-05-21T02:46:51.951Z,73.60
2019-05-21T02:49:22.088Z,73.70
2019-05-21T02:51:51.666Z,73.70
2019-05-21T02:54:38.835Z,73.80
2019-05-21T02:56:52.538Z,73.90
2019-05-21T02:59:22.607Z,73.90
2019-05-21T03:02:04.731Z,73.90
2019-05-21T03:04:34.407Z,74.10
2019-05-21T03:07:19.275Z,74.00
2019-05-21T03:09:50.737Z,74.00
2019-05-21T03:12:20.754Z,73.90
2019-05-21T03:14:50.379Z,74.10
2019-05-21T03:17:20.400Z,74.10
2019-05-21T03:19:50.016Z,74.10
2019-05-21T03:22:19.597Z,74.10
2019-05-21T03:24:49.212Z,74.10
2019-05-21T03:27:19.222Z,74.30
2019-05-21T03:29:49.329Z,74.10
2019-05-21T03:32:19.245Z,74.10
2019-05-21T03:34:49.625Z,74.20
2019-05-21T03:37:19.645Z,74.30
2019-05-21T03:39:49.344Z,75.00
2019-05-21T03:42:18.993Z,74.10
2019-05-21T03:44:58.828Z,74.10
2019-05-21T03:47:20.267Z,74.10
2019-05-21T03:49:50.385Z,74.30
2019-05-21T03:52:20.360Z,74.30
2019-05-21T03:54:50.427Z,74.20
2019-05-21T03:57:20.557Z,74.20
2019-05-21T03:59:50.182Z,74.30
2019-05-21T04:02:19.780Z,74.20
2019-05-21T04:04:49.391Z,74.20
2019-05-21T04:07:19.335Z,74.20
2019-05-21T04:09:48.969Z,74.20
2019-05-21T04:12:18.544Z,74.20
2019-05-21T04:14:52.377Z,74.20
2019-05-21T04:17:52.967Z,74.30
2019-05-21T04:20:22.590Z,74.30
2019-05-21T04:22:55.190Z,74.30
2019-05-21T04:25:24.917Z,74.20
2019-05-21T04:27:54.538Z,74.40
2019-05-21T04:30:24.615Z,74.40
2019-05-21T04:32:54.202Z,74.50
2019-05-21T04:35:23.805Z,74.50
2019-05-21T04:37:53.962Z,74.60
2019-05-21T04:40:23.593Z,74.50
2019-05-21T04:42:53.230Z,74.50
2019-05-21T04:45:22.788Z,75.50
2019-05-21T04:47:52.430Z,74.50
2019-05-21T04:50:22.023Z,74.60
2019-05-21T04:52:51.647Z,74.60
2019-05-21T04:55:21.225Z,74.60
2019-05-21T04:57:51.347Z,74.60
2019-05-21T05:00:20.954Z,74.60
2019-05-21T05:02:50.887Z,74.40
2019-05-21T05:05:20.513Z,74.50
2019-05-21T05:07:51.013Z,74.50
2019-05-21T05:10:21.150Z,74.40
2019-05-21T05:12:50.790Z,74.60
2019-05-21T05:15:20.857Z,74.40
2019-05-21T05:17:51.105Z,74.40
2019-05-21T05:20:21.811Z,75.20
2019-05-21T05:22:51.886Z,74.60
2019-05-21T05:25:21.449Z,75.00
2019-05-21T05:27:51.068Z,74.50
2019-05-21T05:30:21.102Z,74.70
2019-05-21T05:32:50.713Z,74.60
2019-05-21T05:35:20.299Z,74.60
2019-05-21T05:37:49.937Z,74.50
2019-05-21T05:40:19.900Z,74.60
2019-05-21T05:42:49.965Z,74.60
2019-05-21T05:45:19.935Z,74.80
2019-05-21T05:47:50.007Z,74.70
2019-05-21T05:50:22.536Z,74.80
2019-05-21T05:52:52.140Z,74.80
2019-05-21T05:55:21.717Z,74.80
2019-05-21T05:57:51.333Z,74.90
2019-05-21T06:00:22.325Z,74.80
2019-05-21T06:02:52.469Z,74.70
2019-05-21T06:05:22.064Z,74.60
2019-05-21T06:07:59.883Z,74.60
2019-05-21T06:10:23.947Z,74.70
2019-05-21T06:12:53.587Z,74.60
2019-05-21T06:15:23.165Z,74.60
2019-05-21T06:17:53.492Z,74.10
2019-05-21T06:20:23.235Z,74.70
2019-05-21T06:22:53.197Z,74.70
2019-05-21T06:25:22.822Z,74.80
2019-05-21T06:27:53.020Z,74.80
2019-05-21T06:30:22.609Z,74.80
2019-05-21T06:32:52.734Z,74.80
2019-05-21T06:35:22.798Z,74.80
2019-05-21T06:37:52.388Z,74.70
2019-05-21T06:40:22.122Z,74.70
2019-05-21T06:42:52.205Z,74.70
2019-05-21T06:45:22.394Z,74.70
2019-05-21T06:47:52.035Z,74.50
2019-05-21T06:50:21.675Z,74.70
2019-05-21T06:52:51.709Z,74.50
2019-05-21T06:55:21.350Z,74.50
2019-05-21T06:57:50.928Z,74.60
2019-05-21T07:00:20.556Z,74.60
2019-05-21T07:02:50.155Z,75.30
2019-05-21T07:05:21.010Z,74.40
2019-05-21T07:07:50.578Z,74.50
2019-05-21T07:10:20.251Z,74.50
2019-05-21T07:12:49.897Z,74.70
2019-05-21T07:15:19.977Z,74.80
2019-05-21T07:17:50.906Z,74.80
2019-05-21T07:20:21.794Z,74.90
2019-05-21T07:22:51.923Z,75.00
2019-05-21T07:25:21.946Z,75.00
2019-05-21T07:27:51.545Z,74.80
2019-05-21T07:30:21.622Z,75.00
2019-05-21T07:32:52.035Z,75.00
2019-05-21T07:35:22.875Z,75.80
2019-05-21T07:37:52.475Z,75.00
2019-05-21T07:40:22.333Z,75.10
2019-05-21T07:42:52.039Z,75.20
2019-05-21T07:45:21.722Z,75.40
2019-05-21T07:47:51.409Z,75.20
2019-05-21T07:50:21.043Z,75.20
2019-05-21T07:52:51.097Z,75.00
2019-05-21T07:55:20.721Z,74.70
2019-05-21T07:57:50.742Z,74.70
2019-05-21T08:00:21.347Z,74.70
2019-05-21T08:02:51.408Z,74.70
2019-05-21T08:05:21.184Z,74.50
2019-05-21T08:07:50.757Z,74.40
2019-05-21T08:10:20.913Z,74.50
2019-05-21T08:12:50.516Z,74.50
2019-05-21T08:15:20.204Z,74.50
2019-05-21T08:17:49.840Z,74.80
2019-05-21T08:20:20.029Z,74.20
2019-05-21T08:22:49.628Z,74.20
2019-05-21T08:25:19.241Z,74.10
2019-05-21T08:27:49.277Z,74.10
2019-05-21T08:30:21.723Z,74.10
2019-05-21T08:32:51.464Z,74.30
2019-05-21T08:35:22.111Z,74.10
2019-05-21T08:37:52.942Z,73.90
2019-05-21T08:40:23.523Z,74.10
2019-05-21T08:42:53.186Z,74.20
2019-05-21T08:45:23.591Z,74.20
2019-05-21T08:47:53.168Z,74.10
2019-05-21T08:50:23.246Z,74.20
2019-05-21T08:52:52.822Z,74.10
2019-05-21T08:55:22.407Z,74.10
2019-05-21T08:58:06.624Z,74.10
2019-05-21T09:00:25.256Z,74.10
2019-05-21T09:02:56.540Z,74.10
2019-05-21T09:05:26.442Z,74.10
2019-05-21T09:07:56.617Z,74.30
2019-05-21T09:10:26.647Z,74.30
2019-05-21T09:12:56.689Z,75.20
2019-05-21T09:15:26.270Z,74.20
2019-05-21T09:17:56.370Z,74.10
2019-05-21T09:20:26.344Z,74.20
2019-05-21T09:22:56.733Z,74.10
2019-05-21T09:25:26.758Z,74.20
2019-05-21T09:27:56.811Z,74.10
2019-05-21T09:30:26.530Z,74.10
2019-05-21T09:32:56.165Z,74.10
2019-05-21T09:35:25.748Z,74.10
2019-05-21T09:37:56.411Z,74.30
2019-05-21T09:40:26.405Z,74.30
2019-05-21T09:42:56.029Z,74.30
2019-05-21T09:45:25.907Z,74.10
2019-05-21T09:47:56.029Z,75.00
2019-05-21T09:50:25.613Z,73.80
2019-05-21T09:52:55.283Z,73.90
2019-05-21T09:55:24.871Z,73.90
2019-05-21T09:58:12.147Z,74.00
2019-05-21T10:01:16.269Z,74.00
2019-05-21T10:04:04.798Z,74.10
2019-05-21T10:06:34.404Z,74.10
2019-05-21T10:09:06.758Z,74.10
2019-05-21T10:11:36.423Z,74.30
2019-05-21T10:14:06.442Z,74.50
2019-05-21T10:16:36.042Z,74.50
2019-05-21T10:19:06.482Z,74.70
2019-05-21T10:21:36.376Z,74.70
2019-05-21T10:24:06.118Z,74.70
2019-05-21T10:26:35.819Z,74.60
2019-05-21T10:29:05.621Z,74.60
2019-05-21T10:31:35.731Z,74.60
2019-05-21T10:34:06.293Z,74.70
2019-05-21T10:36:35.883Z,74.60
2019-05-21T10:39:07.556Z,74.60
2019-05-21T10:41:37.140Z,74.70
2019-05-21T10:44:06.795Z,74.60
2019-05-21T10:46:37.283Z,74.60
2019-05-21T10:49:07.565Z,74.80
2019-05-21T10:51:37.667Z,74.50
2019-05-21T10:54:08.341Z,74.50
2019-05-21T10:56:47.341Z,74.40
2019-05-21T10:59:09.729Z,74.30
2019-05-21T11:01:54.547Z,74.20
2019-05-21T11:04:52.365Z,74.10
2019-05-21T11:07:23.243Z,74.00
2019-05-21T11:09:52.858Z,73.90
2019-05-21T11:12:22.946Z,74.00
2019-05-21T11:14:52.578Z,74.10
2019-05-21T11:17:22.706Z,74.00
2019-05-21T11:19:52.355Z,74.10
2019-05-21T11:22:22.528Z,74.00
2019-05-21T11:24:52.125Z,74.10
2019-05-21T11:27:23.076Z,74.30
2019-05-21T11:29:53.496Z,74.30
2019-05-21T11:32:24.529Z,74.40
2019-05-21T11:34:54.484Z,74.30
2019-05-21T11:37:25.771Z,74.40
2019-05-21T11:39:56.084Z,74.50
2019-05-21T11:42:26.211Z,74.50
2019-05-21T11:44:56.029Z,74.50
2019-05-21T11:47:25.857Z,74.50
2019-05-21T11:49:56.016Z,74.50
2019-05-21T11:52:25.841Z,75.60
2019-05-21T11:54:56.048Z,74.60
2019-05-21T11:57:25.726Z,74.70
2019-05-21T11:59:55.780Z,74.70
2019-05-21T12:02:25.440Z,75.20
2019-05-21T12:04:56.147Z,75.20
2019-05-21T12:07:26.639Z,75.70
2019-05-21T12:09:56.615Z,75.40
2019-05-21T12:12:26.884Z,75.20
2019-05-21T12:14:57.286Z,75.10
2019-05-21T12:17:27.906Z,75.00
2019-05-21T12:19:57.882Z,75.00
2019-05-21T12:22:27.480Z,75.00
2019-05-21T12:24:57.113Z,75.00
2019-05-21T12:27:26.733Z,74.90
2019-05-21T12:29:57.197Z,75.00
2019-05-21T12:32:26.817Z,74.90
2019-05-21T12:34:56.429Z,74.90
2019-05-21T12:37:26.042Z,74.70
2019-05-21T12:39:55.818Z,74.80
2019-05-21T12:42:25.605Z,74.80
2019-05-21T12:44:57.085Z,75.00
2019-05-21T12:47:26.659Z,75.20
2019-05-21T12:49:56.356Z,74.40
2019-05-21T12:52:26.254Z,75.00
2019-05-21T12:54:57.382Z,75.10
2019-05-21T12:57:28.593Z,75.00
2019-05-21T12:59:59.026Z,75.00
2019-05-21T13:02:29.102Z,75.00
2019-05-21T13:04:58.726Z,74.70
2019-05-21T13:07:28.841Z,74.70
2019-05-21T13:09:58.889Z,75.40
2019-05-21T13:12:28.567Z,74.70
2019-05-21T13:14:59.127Z,74.60
2019-05-21T13:17:28.737Z,74.50
2019-05-21T13:19:58.363Z,74.50
2019-05-21T13:22:28.401Z,74.70
2019-05-21T13:24:58.006Z,74.70
2019-05-21T13:27:31.138Z,74.70
2019-05-21T13:30:01.594Z,75.00
2019-05-21T13:32:31.827Z,75.00
2019-05-21T13:35:02.050Z,75.00
2019-05-21T13:37:32.190Z,75.00
2019-05-21T13:40:01.865Z,75.10
2019-05-21T13:42:32.413Z,75.20
2019-05-21T13:45:02.029Z,75.30
2019-05-21T13:47:31.798Z,75.20
2019-05-21T13:50:01.339Z,75.40
2019-05-21T13:52:31.430Z,75.30
2019-05-21T13:55:01.209Z,75.20
2019-05-21T13:57:30.827Z,75.30
2019-05-21T14:00:00.413Z,75.30
2019-05-21T14:02:31.033Z,75.40
2019-05-21T14:05:00.626Z,75.30
2019-05-21T14:07:30.274Z,75.20
2019-05-21T14:10:14.061Z,75.30
2019-05-21T14:12:31.145Z,75.30
2019-05-21T14:15:00.894Z,75.40
2019-05-21T14:17:30.571Z,75.50
2019-05-21T14:20:00.773Z,75.40
2019-05-21T14:22:30.418Z,75.40
2019-05-21T14:25:00.154Z,75.40
2019-05-21T14:27:43.276Z,75.30
2019-05-21T14:30:01.035Z,75.30
2019-05-21T14:32:30.705Z,75.30
2019-05-21T14:35:02.426Z,75.20
2019-05-21T14:37:32.922Z,75.20
2019-05-21T14:40:07.160Z,75.40
2019-05-21T14:42:36.887Z,75.30
2019-05-21T14:45:07.669Z,75.40
2019-05-21T14:47:37.297Z,75.40
2019-05-21T14:50:07.095Z,75.20
2019-05-21T14:52:37.082Z,75.20
2019-05-21T14:55:08.188Z,75.20
2019-05-21T14:57:37.822Z,75.30
2019-05-21T15:00:12.439Z,75.40
2019-05-21T15:02:42.627Z,75.30
2019-05-21T15:05:12.480Z,75.40
2019-05-21T15:07:42.926Z,75.40
2019-05-21T15:10:12.562Z,75.40
2019-05-21T15:12:42.765Z,75.40
2019-05-21T15:15:12.748Z,75.40
2019-05-21T15:17:42.833Z,76.20
2019-05-21T15:20:19.765Z,75.30
2019-05-21T15:22:49.337Z,75.30
2019-05-21T15:25:19.001Z,75.20
2019-05-21T15:27:48.961Z,75.20
2019-05-21T15:30:20.649Z,75.10
2019-05-21T15:32:50.254Z,75.20
2019-05-21T15:35:19.897Z,75.00
2019-05-21T15:37:49.944Z,75.00
2019-05-21T15:40:20.052Z,75.20
2019-05-21T15:42:54.238Z,75.20
2019-05-21T15:45:24.325Z,75.20
2019-05-21T15:47:54.325Z,75.20
2019-05-21T15:50:23.953Z,75.20
2019-05-21T15:52:53.554Z,75.20
2019-05-21T15:55:23.689Z,75.10
2019-05-21T15:57:53.738Z,75.20
2019-05-21T16:00:23.382Z,75.10
2019-05-21T16:02:53.411Z,75.10
2019-05-21T16:05:23.577Z,75.10
2019-05-21T16:07:53.630Z,75.10
2019-05-21T16:10:23.252Z,75.10
2019-05-21T16:12:54.490Z,75.20
2019-05-21T16:15:24.429Z,75.00
2019-05-21T16:17:54.050Z,75.00
2019-05-21T16:20:23.682Z,75.00
2019-05-21T16:22:53.766Z,75.10
2019-05-21T16:25:23.395Z,76.00
2019-05-21T16:27:52.990Z,75.20
2019-05-21T16:30:32.673Z,75.20
2019-05-21T16:33:02.988Z,75.10
2019-05-21T16:35:33.772Z,75.60
2019-05-21T16:38:04.220Z,75.10
2019-05-21T16:40:34.757Z,75.10
2019-05-21T16:43:04.384Z,75.00
2019-05-21T16:45:34.577Z,75.10
2019-05-21T16:48:04.579Z,75.10
2019-05-21T16:50:34.626Z,75.20
2019-05-21T16:53:04.758Z,75.10
2019-05-21T16:55:35.197Z,75.20
2019-05-21T16:58:04.782Z,75.20
2019-05-21T17:00:34.982Z,75.10
2019-05-21T17:03:05.423Z,75.10
2019-05-21T17:05:36.212Z,75.00
2019-05-21T17:08:06.273Z,75.00
2019-05-21T17:10:36.348Z,75.00
2019-05-21T17:13:05.952Z,75.10
2019-05-21T17:15:35.578Z,75.10
2019-05-21T17:18:05.163Z,75.00
2019-05-21T17:20:35.276Z,75.00
2019-05-21T17:23:04.940Z,75.00
2019-05-21T17:25:35.317Z,75.10
2019-05-21T17:28:04.947Z,75.00
2019-05-21T17:30:34.593Z,75.10
2019-05-21T17:33:04.826Z,75.90
2019-05-21T17:35:34.918Z,74.90
2019-05-21T17:38:04.931Z,75.00
2019-05-21T17:40:35.061Z,74.90
2019-05-21T17:43:04.771Z,74.90
2019-05-21T17:45:35.316Z,74.80
2019-05-21T17:48:05.187Z,74.70
2019-05-21T17:50:35.286Z,74.90
2019-05-21T17:53:04.975Z,74.90
2019-05-21T17:55:34.553Z,75.00
2019-05-21T17:58:04.602Z,75.00
2019-05-21T18:00:53.076Z,75.00
2019-05-21T18:03:22.718Z,75.10
2019-05-21T18:05:52.616Z,75.00
2019-05-21T18:08:22.360Z,75.00
2019-05-21T18:10:52.449Z,75.00
2019-05-21T18:13:23.026Z,75.20
2019-05-21T18:15:53.876Z,75.20
2019-05-21T18:18:24.038Z,75.20
2019-05-21T18:20:55.202Z,75.30
2019-05-21T18:23:26.628Z,75.20
2019-05-21T18:25:56.703Z,75.20
2019-05-21T18:28:27.195Z,75.20
2019-05-21T18:30:57.157Z,75.20
2019-05-21T18:33:27.095Z,75.10
2019-05-21T18:35:57.026Z,75.00
2019-05-21T18:38:26.663Z,75.10
2019-05-21T18:40:56.284Z,75.20
2019-05-21T18:43:26.778Z,75.20
2019-05-21T18:45:56.470Z,75.20
2019-05-21T18:48:26.602Z,75.20
2019-05-21T18:50:56.662Z,75.20
2019-05-21T18:53:26.749Z,75.20
2019-05-21T18:55:56.339Z,75.20
2019-05-21T18:58:26.268Z,75.20
2019-05-21T19:00:57.089Z,75.20
2019-05-21T19:03:27.265Z,75.30
2019-05-21T19:05:56.954Z,75.20
2019-05-21T19:08:26.992Z,75.40
2019-05-21T19:10:57.018Z,75.30
2019-05-21T19:13:27.008Z,75.40
2019-05-21T19:15:57.179Z,75.40
2019-05-21T19:18:27.202Z,75.40
2019-05-21T19:20:57.384Z,75.40
2019-05-21T19:23:27.476Z,75.40
2019-05-21T19:25:57.138Z,75.50
2019-05-21T19:28:27.088Z,75.40
2019-05-21T19:30:57.143Z,75.40
2019-05-21T19:33:26.713Z,75.40
2019-05-21T19:35:56.343Z,75.60
2019-05-21T19:38:26.511Z,75.50
2019-05-21T19:40:56.529Z,75.50
2019-05-21T19:43:26.590Z,75.40
2019-05-21T19:45:56.228Z,75.40
2019-05-21T19:48:25.814Z,75.40
2019-05-21T19:50:55.598Z,75.50
2019-05-21T19:53:25.498Z,74.70
2019-05-21T19:55:56.035Z,75.60
2019-05-21T19:58:25.656Z,75.60
2019-05-21T20:00:55.727Z,75.60
2019-05-21T20:03:26.276Z,75.60
2019-05-21T20:05:56.406Z,75.60
2019-05-21T20:08:27.330Z,75.60
2019-05-21T20:10:57.493Z,75.60
2019-05-21T20:13:32.490Z,75.60
2019-05-21T20:15:59.602Z,75.50
2019-05-21T20:18:29.812Z,75.60
2019-05-21T20:21:00.721Z,75.60
2019-05-21T20:23:31.749Z,75.90
2019-05-21T20:26:01.606Z,75.50
2019-05-21T20:28:31.221Z,75.50
2019-05-21T20:31:01.706Z,75.60
2019-05-21T20:33:32.088Z,75.50
2019-05-21T20:36:01.787Z,75.50
2019-05-21T20:38:31.916Z,75.40
2019-05-21T20:41:02.232Z,75.50
2019-05-21T20:43:32.093Z,75.50
2019-05-21T20:46:02.429Z,75.50
2019-05-21T20:48:34.805Z,75.60
2019-05-21T20:51:07.078Z,75.50
2019-05-21T20:53:37.385Z,75.60
2019-05-21T20:56:08.216Z,75.60
2019-05-21T20:58:38.324Z,75.60
2019-05-21T21:01:08.641Z,75.60
2019-05-21T21:03:39.657Z,75.60
2019-05-21T21:06:09.682Z,75.60
2019-05-21T21:08:39.303Z,75.60
2019-05-21T21:11:09.234Z,75.70
2019-05-21T21:13:39.273Z,75.60
2019-05-21T21:16:09.331Z,75.70
2019-05-21T21:18:39.918Z,75.80
2019-05-21T21:21:09.569Z,75.80
2019-05-21T21:23:40.711Z,75.80
2019-05-21T21:26:12.448Z,75.80
2019-05-21T21:28:42.672Z,75.80
2019-05-21T21:31:12.251Z,75.70
2019-05-21T21:33:42.439Z,75.80
2019-05-21T21:36:12.522Z,75.80
2019-05-21T21:38:42.137Z,75.80
2019-05-21T21:41:11.696Z,76.90
2019-05-21T21:43:41.342Z,75.90
2019-05-21T21:46:11.414Z,75.80
2019-05-21T21:48:41.040Z,75.80
2019-05-21T21:51:11.564Z,75.80
2019-05-21T21:53:41.191Z,75.80
2019-05-21T21:56:10.778Z,75.90
2019-05-21T21:58:40.398Z,76.00
2019-05-21T22:01:35.016Z,76.00
2019-05-21T22:04:06.163Z,76.10
2019-05-21T22:06:36.554Z,76.10
2019-05-21T22:09:09.859Z,76.10
2019-05-21T22:11:40.317Z,76.10
2019-05-21T22:14:10.238Z,76.20
2019-05-21T22:16:39.814Z,76.20
2019-05-21T22:19:10.461Z,76.30
2019-05-21T22:21:40.694Z,76.30
2019-05-21T22:24:11.030Z,76.30
2019-05-21T22:26:41.305Z,76.20
2019-05-21T22:29:11.884Z,76.30
2019-05-21T22:31:42.036Z,76.40
2019-05-21T22:34:11.654Z,76.40
2019-05-21T22:36:41.424Z,76.40
2019-05-21T22:39:17.698Z,76.20
2019-05-21T22:41:47.915Z,76.20
2019-05-21T22:44:17.916Z,76.20
2019-05-21T22:46:48.073Z,76.10
2019-05-21T22:49:17.706Z,76.10
2019-05-21T22:51:47.581Z,76.20
2019-05-21T22:54:17.133Z,76.10
2019-05-21T22:56:46.786Z,76.20
2019-05-21T22:59:16.922Z,76.10
2019-05-21T23:01:49.429Z,76.20
2019-05-21T23:04:19.333Z,76.20
2019-05-21T23:06:49.181Z,76.10
2019-05-21T23:09:19.448Z,76.30
2019-05-21T23:11:49.090Z,76.30
2019-05-21T23:14:18.700Z,76.20
2019-05-21T23:16:48.351Z,76.20
2019-05-21T23:19:18.900Z,76.10
2019-05-21T23:21:49.664Z,76.10
2019-05-21T23:24:21.554Z,76.20
2019-05-21T23:26:51.306Z,76.20
2019-05-21T23:29:21.325Z,76.30
2019-05-21T23:31:52.317Z,76.30
2019-05-21T23:34:31.691Z,76.20
2019-05-21T23:37:12.725Z,76.30
2019-05-21T23:39:43.449Z,76.20
2019-05-21T23:42:27.206Z,76.40
2019-05-21T23:44:45.328Z,76.20
2019-05-21T23:47:16.526Z,76.10
2019-05-21T23:49:46.114Z,76.10
2019-05-21T23:52:15.737Z,76.10
2019-05-21T23:54:45.811Z,76.10
2019-05-21T23:57:20.789Z,76.10
2019-05-21T23:59:51.328Z,76.10
